sensor_id;sensor_type;location;lat;lon;timestamp;temperature;humidity
38090;DHT22;23904;52.322;10.232;2023-06-22T00:00:44;21.30;99.90
38090;DHT22;23904;52.322;10.232;2023-06-22T00:03:10;21.30;99.90
38090;DHT22;23904;52.322;10.232;2023-06-22T00:05:35;21.30;99.90
38090;DHT22;23904;52.322;10.232;2023-06-22T00:08:04;21.20;99.90
38090;DHT22;23904;52.322;10.232;2023-06-22T00:10:30;21.20;99.90
38090;DHT22;23904;52.322;10.232;2023-06-22T00:12:56;21.20;99.90
38090;DHT22;23904;52.322;10.232;2023-06-22T00:15:21;21.20;99.90
38090;DHT22;23904;52.322;10.232;2023-06-22T00:17:47;21.20;99.90
38090;DHT22;23904;52.322;10.232;2023-06-22T00:20:13;21.10;99.90
38090;DHT22;23904;52.322;10.232;2023-06-22T00:22:39;21.10;99.90
38090;DHT22;23904;52.322;10.232;2023-06-22T00:25:09;21.00;99.90
38090;DHT22;23904;52.322;10.232;2023-06-22T00:27:35;21.00;99.90
38090;DHT22;23904;52.322;10.232;2023-06-22T00:30:01;21.00;99.90
38090;DHT22;23904;52.322;10.232;2023-06-22T00:32:26;21.00;99.90
38090;DHT22;23904;52.322;10.232;2023-06-22T00:34:52;20.90;99.90
38090;DHT22;23904;52.322;10.232;2023-06-22T00:37:18;20.90;99.90
38090;DHT22;23904;52.322;10.232;2023-06-22T00:39:43;20.90;99.90
38090;DHT22;23904;52.322;10.232;2023-06-22T00:42:09;20.80;99.90
38090;DHT22;23904;52.322;10.232;2023-06-22T00:44:35;20.80;99.90
38090;DHT22;23904;52.322;10.232;2023-06-22T00:47:02;20.70;99.90
38090;DHT22;23904;52.322;10.232;2023-06-22T00:49:29;20.70;99.90
38090;DHT22;23904;52.322;10.232;2023-06-22T00:51:55;20.60;99.90
38090;DHT22;23904;52.322;10.232;2023-06-22T00:54:22;20.70;99.90
38090;DHT22;23904;52.322;10.232;2023-06-22T00:56:53;20.70;99.90
38090;DHT22;23904;52.322;10.232;2023-06-22T00:59:21;20.70;99.90
38090;DHT22;23904;52.322;10.232;2023-06-22T01:01:46;20.70;99.90
38090;DHT22;23904;52.322;10.232;2023-06-22T01:04:12;20.70;99.90
38090;DHT22;23904;52.322;10.232;2023-06-22T01:06:45;20.70;99.90
38090;DHT22;23904;52.322;10.232;2023-06-22T01:09:32;20.60;99.90
38090;DHT22;23904;52.322;10.232;2023-06-22T01:12:04;20.60;99.90
38090;DHT22;23904;52.322;10.232;2023-06-22T01:14:51;20.60;99.90
38090;DHT22;23904;52.322;10.232;2023-06-22T01:17:21;20.60;99.90
38090;DHT22;23904;52.322;10.232;2023-06-22T01:19:51;20.50;99.90
38090;DHT22;23904;52.322;10.232;2023-06-22T01:22:26;20.50;99.90
38090;DHT22;23904;52.322;10.232;2023-06-22T01:25:20;20.50;99.90
38090;DHT22;23904;52.322;10.232;2023-06-22T01:30:41;20.40;99.90
38090;DHT22;23904;52.322;10.232;2023-06-22T01:33:11;20.50;99.90
38090;DHT22;23904;52.322;10.232;2023-06-22T01:35:38;20.50;99.90
38090;DHT22;23904;52.322;10.232;2023-06-22T01:38:05;20.40;99.90
38090;DHT22;23904;52.322;10.232;2023-06-22T01:40:32;20.40;99.90
38090;DHT22;23904;52.322;10.232;2023-06-22T01:43:00;20.40;99.90
38090;DHT22;23904;52.322;10.232;2023-06-22T01:45:27;20.40;99.90
38090;DHT22;23904;52.322;10.232;2023-06-22T01:47:53;20.50;99.90
38090;DHT22;23904;52.322;10.232;2023-06-22T01:50:20;20.40;99.90
38090;DHT22;23904;52.322;10.232;2023-06-22T01:52:46;20.30;99.90
38090;DHT22;23904;52.322;10.232;2023-06-22T01:55:11;20.30;99.90
38090;DHT22;23904;52.322;10.232;2023-06-22T01:57:37;20.20;99.90
38090;DHT22;23904;52.322;10.232;2023-06-22T02:00:11;20.20;99.90
38090;DHT22;23904;52.322;10.232;2023-06-22T02:02:52;20.20;99.90
38090;DHT22;23904;52.322;10.232;2023-06-22T02:05:23;20.20;99.90
38090;DHT22;23904;52.322;10.232;2023-06-22T02:10:23;20.10;99.90
38090;DHT22;23904;52.322;10.232;2023-06-22T02:12:50;20.10;99.90
38090;DHT22;23904;52.322;10.232;2023-06-22T02:15:17;20.00;99.90
38090;DHT22;23904;52.322;10.232;2023-06-22T02:17:42;20.00;99.90
38090;DHT22;23904;52.322;10.232;2023-06-22T02:20:12;20.00;99.90
38090;DHT22;23904;52.322;10.232;2023-06-22T02:22:39;20.00;99.90
38090;DHT22;23904;52.322;10.232;2023-06-22T02:25:05;19.90;99.90
38090;DHT22;23904;52.322;10.232;2023-06-22T02:27:31;19.80;99.90
38090;DHT22;23904;52.322;10.232;2023-06-22T02:29:57;19.90;99.90
38090;DHT22;23904;52.322;10.232;2023-06-22T02:32:22;19.90;99.90
38090;DHT22;23904;52.322;10.232;2023-06-22T02:34:48;19.80;99.90
38090;DHT22;23904;52.322;10.232;2023-06-22T02:37:14;19.80;99.90
38090;DHT22;23904;52.322;10.232;2023-06-22T02:39:40;19.80;99.90
38090;DHT22;23904;52.322;10.232;2023-06-22T02:42:06;19.80;99.90
38090;DHT22;23904;52.322;10.232;2023-06-22T02:44:31;19.80;99.90
38090;DHT22;23904;52.322;10.232;2023-06-22T02:46:57;19.70;99.90
38090;DHT22;23904;52.322;10.232;2023-06-22T02:49:23;19.70;99.90
38090;DHT22;23904;52.322;10.232;2023-06-22T02:51:49;19.70;99.90
38090;DHT22;23904;52.322;10.232;2023-06-22T02:54:15;19.70;99.90
38090;DHT22;23904;52.322;10.232;2023-06-22T02:56:41;19.70;99.90
38090;DHT22;23904;52.322;10.232;2023-06-22T02:59:09;19.60;99.90
38090;DHT22;23904;52.322;10.232;2023-06-22T03:01:36;19.60;99.90
38090;DHT22;23904;52.322;10.232;2023-06-22T03:04:06;19.60;99.90
38090;DHT22;23904;52.322;10.232;2023-06-22T03:06:32;19.60;99.90
38090;DHT22;23904;52.322;10.232;2023-06-22T03:09:00;19.60;99.90
38090;DHT22;23904;52.322;10.232;2023-06-22T03:11:26;19.70;99.90
38090;DHT22;23904;52.322;10.232;2023-06-22T03:13:52;19.70;99.90
38090;DHT22;23904;52.322;10.232;2023-06-22T03:16:18;19.70;99.90
38090;DHT22;23904;52.322;10.232;2023-06-22T03:18:44;19.70;99.90
38090;DHT22;23904;52.322;10.232;2023-06-22T03:21:10;19.80;99.90
38090;DHT22;23904;52.322;10.232;2023-06-22T03:23:36;19.80;99.90
38090;DHT22;23904;52.322;10.232;2023-06-22T03:26:02;19.80;99.90
38090;DHT22;23904;52.322;10.232;2023-06-22T03:28:27;19.80;99.90
38090;DHT22;23904;52.322;10.232;2023-06-22T03:30:53;19.80;99.90
38090;DHT22;23904;52.322;10.232;2023-06-22T03:33:19;19.80;99.90
38090;DHT22;23904;52.322;10.232;2023-06-22T03:35:44;19.80;99.90
38090;DHT22;23904;52.322;10.232;2023-06-22T03:38:10;19.80;99.90
38090;DHT22;23904;52.322;10.232;2023-06-22T03:40:35;19.80;99.90
38090;DHT22;23904;52.322;10.232;2023-06-22T03:43:01;19.80;99.90
38090;DHT22;23904;52.322;10.232;2023-06-22T03:45:26;19.90;99.90
38090;DHT22;23904;52.322;10.232;2023-06-22T03:47:52;19.90;99.90
38090;DHT22;23904;52.322;10.232;2023-06-22T03:50:18;19.90;99.90
38090;DHT22;23904;52.322;10.232;2023-06-22T03:52:45;20.00;99.90
38090;DHT22;23904;52.322;10.232;2023-06-22T03:55:12;20.00;99.90
38090;DHT22;23904;52.322;10.232;2023-06-22T03:57:37;20.00;99.90
38090;DHT22;23904;52.322;10.232;2023-06-22T04:00:03;20.00;99.90
38090;DHT22;23904;52.322;10.232;2023-06-22T04:02:33;20.20;99.90
38090;DHT22;23904;52.322;10.232;2023-06-22T04:04:58;20.20;99.90
38090;DHT22;23904;52.322;10.232;2023-06-22T04:07:24;20.30;99.90
38090;DHT22;23904;52.322;10.232;2023-06-22T04:09:50;20.40;99.90
38090;DHT22;23904;52.322;10.232;2023-06-22T04:12:15;20.40;99.90
38090;DHT22;23904;52.322;10.232;2023-06-22T04:14:41;20.50;99.90
38090;DHT22;23904;52.322;10.232;2023-06-22T04:17:06;20.60;99.90
38090;DHT22;23904;52.322;10.232;2023-06-22T04:19:32;20.50;99.90
38090;DHT22;23904;52.322;10.232;2023-06-22T04:21:57;20.50;99.90
38090;DHT22;23904;52.322;10.232;2023-06-22T04:24:23;20.50;99.90
38090;DHT22;23904;52.322;10.232;2023-06-22T04:26:48;20.60;99.90
38090;DHT22;23904;52.322;10.232;2023-06-22T04:29:19;20.70;99.90
38090;DHT22;23904;52.322;10.232;2023-06-22T04:31:44;20.70;99.90
38090;DHT22;23904;52.322;10.232;2023-06-22T04:34:09;20.70;99.90
38090;DHT22;23904;52.322;10.232;2023-06-22T04:36:37;20.80;99.90
38090;DHT22;23904;52.322;10.232;2023-06-22T04:39:06;20.80;99.90
38090;DHT22;23904;52.322;10.232;2023-06-22T04:41:32;20.80;99.90
38090;DHT22;23904;52.322;10.232;2023-06-22T04:46:39;20.70;99.90
38090;DHT22;23904;52.322;10.232;2023-06-22T04:49:09;20.80;99.90
38090;DHT22;23904;52.322;10.232;2023-06-22T04:51:40;20.80;99.90
38090;DHT22;23904;52.322;10.232;2023-06-22T04:54:07;20.80;99.90
38090;DHT22;23904;52.322;10.232;2023-06-22T04:56:33;20.80;99.90
38090;DHT22;23904;52.322;10.232;2023-06-22T04:58:59;20.80;99.90
38090;DHT22;23904;52.322;10.232;2023-06-22T05:01:25;20.80;99.90
38090;DHT22;23904;52.322;10.232;2023-06-22T05:03:51;20.70;99.90
38090;DHT22;23904;52.322;10.232;2023-06-22T05:06:21;20.80;99.90
38090;DHT22;23904;52.322;10.232;2023-06-22T05:08:54;20.80;99.90
38090;DHT22;23904;52.322;10.232;2023-06-22T05:11:27;20.90;99.90
38090;DHT22;23904;52.322;10.232;2023-06-22T05:13:53;20.90;99.90
38090;DHT22;23904;52.322;10.232;2023-06-22T05:16:20;20.90;99.90
38090;DHT22;23904;52.322;10.232;2023-06-22T05:18:53;20.90;99.90
38090;DHT22;23904;52.322;10.232;2023-06-22T05:21:26;20.90;99.90
38090;DHT22;23904;52.322;10.232;2023-06-22T05:23:53;21.00;99.90
38090;DHT22;23904;52.322;10.232;2023-06-22T05:26:19;21.00;99.90
38090;DHT22;23904;52.322;10.232;2023-06-22T05:28:46;21.10;99.90
38090;DHT22;23904;52.322;10.232;2023-06-22T05:31:14;21.10;99.90
38090;DHT22;23904;52.322;10.232;2023-06-22T05:33:42;21.10;99.90
38090;DHT22;23904;52.322;10.232;2023-06-22T05:36:08;21.20;99.90
38090;DHT22;23904;52.322;10.232;2023-06-22T05:38:35;21.30;99.90
38090;DHT22;23904;52.322;10.232;2023-06-22T05:41:01;21.40;99.90
38090;DHT22;23904;52.322;10.232;2023-06-22T05:43:27;21.40;99.90
38090;DHT22;23904;52.322;10.232;2023-06-22T05:45:52;21.40;99.90
38090;DHT22;23904;52.322;10.232;2023-06-22T05:48:18;21.50;99.90
38090;DHT22;23904;52.322;10.232;2023-06-22T05:50:43;21.60;99.90
38090;DHT22;23904;52.322;10.232;2023-06-22T05:53:09;21.70;99.90
38090;DHT22;23904;52.322;10.232;2023-06-22T05:55:34;21.70;99.90
38090;DHT22;23904;52.322;10.232;2023-06-22T05:58:00;21.80;99.90
38090;DHT22;23904;52.322;10.232;2023-06-22T06:00:25;21.90;99.90
38090;DHT22;23904;52.322;10.232;2023-06-22T06:02:51;22.10;99.90
38090;DHT22;23904;52.322;10.232;2023-06-22T06:05:17;22.10;99.90
38090;DHT22;23904;52.322;10.232;2023-06-22T06:07:44;22.10;99.90
38090;DHT22;23904;52.322;10.232;2023-06-22T06:10:12;22.00;99.90
38090;DHT22;23904;52.322;10.232;2023-06-22T06:12:38;22.10;99.90
38090;DHT22;23904;52.322;10.232;2023-06-22T06:15:04;22.10;99.90
38090;DHT22;23904;52.322;10.232;2023-06-22T06:17:30;22.10;99.90
38090;DHT22;23904;52.322;10.232;2023-06-22T06:19:56;22.20;99.90
38090;DHT22;23904;52.322;10.232;2023-06-22T06:22:21;22.30;99.90
38090;DHT22;23904;52.322;10.232;2023-06-22T06:24:49;22.30;99.90
38090;DHT22;23904;52.322;10.232;2023-06-22T06:27:15;22.30;99.90
38090;DHT22;23904;52.322;10.232;2023-06-22T06:29:43;22.30;99.90
38090;DHT22;23904;52.322;10.232;2023-06-22T06:32:11;22.30;99.90
38090;DHT22;23904;52.322;10.232;2023-06-22T06:34:36;22.40;99.90
38090;DHT22;23904;52.322;10.232;2023-06-22T06:37:03;22.40;99.90
38090;DHT22;23904;52.322;10.232;2023-06-22T06:39:28;22.40;99.90
38090;DHT22;23904;52.322;10.232;2023-06-22T06:41:54;22.50;99.90
38090;DHT22;23904;52.322;10.232;2023-06-22T06:44:19;22.50;99.90
38090;DHT22;23904;52.322;10.232;2023-06-22T06:46:45;22.40;99.90
38090;DHT22;23904;52.322;10.232;2023-06-22T06:49:10;22.50;99.90
38090;DHT22;23904;52.322;10.232;2023-06-22T06:51:36;22.60;99.90
38090;DHT22;23904;52.322;10.232;2023-06-22T06:54:02;22.60;99.90
38090;DHT22;23904;52.322;10.232;2023-06-22T06:56:28;22.70;99.90
38090;DHT22;23904;52.322;10.232;2023-06-22T06:58:55;22.80;99.90
38090;DHT22;23904;52.322;10.232;2023-06-22T07:01:21;22.70;99.90
38090;DHT22;23904;52.322;10.232;2023-06-22T07:03:46;22.70;99.90
38090;DHT22;23904;52.322;10.232;2023-06-22T07:06:13;22.90;99.90
38090;DHT22;23904;52.322;10.232;2023-06-22T07:08:38;22.90;99.90
38090;DHT22;23904;52.322;10.232;2023-06-22T07:11:05;22.90;99.90
38090;DHT22;23904;52.322;10.232;2023-06-22T07:13:31;23.00;99.90
38090;DHT22;23904;52.322;10.232;2023-06-22T07:15:56;23.10;99.90
38090;DHT22;23904;52.322;10.232;2023-06-22T07:18:22;23.10;99.90
38090;DHT22;23904;52.322;10.232;2023-06-22T07:20:47;23.30;99.90
38090;DHT22;23904;52.322;10.232;2023-06-22T07:23:13;23.40;99.90
38090;DHT22;23904;52.322;10.232;2023-06-22T07:25:38;23.30;99.90
38090;DHT22;23904;52.322;10.232;2023-06-22T07:28:05;23.30;99.90
38090;DHT22;23904;52.322;10.232;2023-06-22T07:30:33;23.40;99.90
38090;DHT22;23904;52.322;10.232;2023-06-22T07:32:59;23.50;99.90
38090;DHT22;23904;52.322;10.232;2023-06-22T07:35:29;23.50;99.90
38090;DHT22;23904;52.322;10.232;2023-06-22T07:37:55;23.50;99.90
38090;DHT22;23904;52.322;10.232;2023-06-22T07:40:20;23.60;99.90
38090;DHT22;23904;52.322;10.232;2023-06-22T07:42:46;23.60;99.90
38090;DHT22;23904;52.322;10.232;2023-06-22T07:45:13;23.60;99.90
38090;DHT22;23904;52.322;10.232;2023-06-22T07:47:39;23.60;99.90
38090;DHT22;23904;52.322;10.232;2023-06-22T07:50:05;23.60;99.90
38090;DHT22;23904;52.322;10.232;2023-06-22T07:52:31;23.90;99.90
38090;DHT22;23904;52.322;10.232;2023-06-22T07:54:57;24.00;99.90
38090;DHT22;23904;52.322;10.232;2023-06-22T07:57:24;24.20;99.90
38090;DHT22;23904;52.322;10.232;2023-06-22T07:59:57;24.30;99.90
38090;DHT22;23904;52.322;10.232;2023-06-22T08:02:24;24.40;99.90
38090;DHT22;23904;52.322;10.232;2023-06-22T08:04:50;24.60;99.90
38090;DHT22;23904;52.322;10.232;2023-06-22T08:07:15;24.40;99.90
38090;DHT22;23904;52.322;10.232;2023-06-22T08:09:46;24.30;99.90
38090;DHT22;23904;52.322;10.232;2023-06-22T08:12:13;24.30;99.90
38090;DHT22;23904;52.322;10.232;2023-06-22T08:14:39;24.30;99.90
38090;DHT22;23904;52.322;10.232;2023-06-22T08:17:07;24.30;99.90
38090;DHT22;23904;52.322;10.232;2023-06-22T08:19:32;24.40;99.90
38090;DHT22;23904;52.322;10.232;2023-06-22T08:21:58;24.40;99.90
38090;DHT22;23904;52.322;10.232;2023-06-22T08:24:24;24.50;99.90
38090;DHT22;23904;52.322;10.232;2023-06-22T08:26:51;24.50;99.90
38090;DHT22;23904;52.322;10.232;2023-06-22T08:29:17;24.60;99.90
38090;DHT22;23904;52.322;10.232;2023-06-22T08:31:42;24.60;99.90
38090;DHT22;23904;52.322;10.232;2023-06-22T08:34:08;24.60;99.90
38090;DHT22;23904;52.322;10.232;2023-06-22T08:36:34;24.70;99.90
38090;DHT22;23904;52.322;10.232;2023-06-22T08:39:07;24.80;99.90
38090;DHT22;23904;52.322;10.232;2023-06-22T08:41:33;24.90;99.90
38090;DHT22;23904;52.322;10.232;2023-06-22T08:43:59;24.90;99.90
38090;DHT22;23904;52.322;10.232;2023-06-22T08:46:24;25.00;99.90
38090;DHT22;23904;52.322;10.232;2023-06-22T08:48:56;25.00;99.90
38090;DHT22;23904;52.322;10.232;2023-06-22T08:51:23;25.10;99.90
38090;DHT22;23904;52.322;10.232;2023-06-22T08:53:49;25.00;99.90
38090;DHT22;23904;52.322;10.232;2023-06-22T08:56:14;25.00;99.90
38090;DHT22;23904;52.322;10.232;2023-06-22T08:58:40;25.10;99.90
38090;DHT22;23904;52.322;10.232;2023-06-22T09:01:05;25.30;99.90
38090;DHT22;23904;52.322;10.232;2023-06-22T09:03:32;25.30;99.90
38090;DHT22;23904;52.322;10.232;2023-06-22T09:05:58;25.40;99.90
38090;DHT22;23904;52.322;10.232;2023-06-22T09:08:24;25.30;99.90
38090;DHT22;23904;52.322;10.232;2023-06-22T09:10:49;25.30;99.90
38090;DHT22;23904;52.322;10.232;2023-06-22T09:13:15;25.30;99.90
38090;DHT22;23904;52.322;10.232;2023-06-22T09:15:40;25.40;99.90
38090;DHT22;23904;52.322;10.232;2023-06-22T09:18:06;25.50;99.90
38090;DHT22;23904;52.322;10.232;2023-06-22T09:20:31;25.60;99.90
38090;DHT22;23904;52.322;10.232;2023-06-22T09:22:57;25.80;99.90
38090;DHT22;23904;52.322;10.232;2023-06-22T09:25:23;26.20;99.90
38090;DHT22;23904;52.322;10.232;2023-06-22T09:27:48;26.50;99.90
38090;DHT22;23904;52.322;10.232;2023-06-22T09:30:14;26.80;99.90
38090;DHT22;23904;52.322;10.232;2023-06-22T09:32:40;26.90;99.90
38090;DHT22;23904;52.322;10.232;2023-06-22T09:35:06;26.90;99.90
38090;DHT22;23904;52.322;10.232;2023-06-22T09:37:32;27.10;99.80
38090;DHT22;23904;52.322;10.232;2023-06-22T09:39:57;27.20;99.90
38090;DHT22;23904;52.322;10.232;2023-06-22T09:42:23;27.20;99.90
38090;DHT22;23904;52.322;10.232;2023-06-22T09:44:48;27.00;99.90
38090;DHT22;23904;52.322;10.232;2023-06-22T09:47:14;27.20;99.40
38090;DHT22;23904;52.322;10.232;2023-06-22T09:49:39;27.50;99.40
38090;DHT22;23904;52.322;10.232;2023-06-22T09:52:05;27.60;98.80
38090;DHT22;23904;52.322;10.232;2023-06-22T09:54:31;27.50;98.70
38090;DHT22;23904;52.322;10.232;2023-06-22T09:56:57;27.50;99.00
38090;DHT22;23904;52.322;10.232;2023-06-22T09:59:22;27.60;99.10
38090;DHT22;23904;52.322;10.232;2023-06-22T10:01:48;27.40;99.10
38090;DHT22;23904;52.322;10.232;2023-06-22T10:04:13;27.20;99.80
38090;DHT22;23904;52.322;10.232;2023-06-22T10:06:39;27.20;99.60
38090;DHT22;23904;52.322;10.232;2023-06-22T10:09:06;27.10;99.50
38090;DHT22;23904;52.322;10.232;2023-06-22T10:11:33;27.20;99.70
38090;DHT22;23904;52.322;10.232;2023-06-22T10:14:00;27.30;99.90
38090;DHT22;23904;52.322;10.232;2023-06-22T10:16:33;27.70;99.20
38090;DHT22;23904;52.322;10.232;2023-06-22T10:19:01;27.80;99.00
38090;DHT22;23904;52.322;10.232;2023-06-22T10:21:26;28.00;99.10
38090;DHT22;23904;52.322;10.232;2023-06-22T10:23:54;28.40;98.60
38090;DHT22;23904;52.322;10.232;2023-06-22T10:26:20;28.70;97.80
38090;DHT22;23904;52.322;10.232;2023-06-22T10:28:45;28.70;97.80
38090;DHT22;23904;52.322;10.232;2023-06-22T10:31:11;28.80;97.60
38090;DHT22;23904;52.322;10.232;2023-06-22T10:33:36;29.00;97.40
38090;DHT22;23904;52.322;10.232;2023-06-22T10:36:02;29.00;97.30
38090;DHT22;23904;52.322;10.232;2023-06-22T10:38:28;28.80;97.50
38090;DHT22;23904;52.322;10.232;2023-06-22T10:40:53;28.70;98.00
38090;DHT22;23904;52.322;10.232;2023-06-22T10:43:19;28.60;97.90
38090;DHT22;23904;52.322;10.232;2023-06-22T10:45:45;28.60;97.50
38090;DHT22;23904;52.322;10.232;2023-06-22T10:48:10;28.60;98.10
38090;DHT22;23904;52.322;10.232;2023-06-22T10:50:36;28.30;98.20
38090;DHT22;23904;52.322;10.232;2023-06-22T10:53:01;28.40;98.30
38090;DHT22;23904;52.322;10.232;2023-06-22T10:55:27;28.40;98.40
38090;DHT22;23904;52.322;10.232;2023-06-22T10:57:52;28.40;98.40
38090;DHT22;23904;52.322;10.232;2023-06-22T11:00:18;28.50;97.90
38090;DHT22;23904;52.322;10.232;2023-06-22T11:02:44;28.70;97.20
38090;DHT22;23904;52.322;10.232;2023-06-22T11:05:09;28.70;97.70
38090;DHT22;23904;52.322;10.232;2023-06-22T11:07:37;28.60;98.00
38090;DHT22;23904;52.322;10.232;2023-06-22T11:10:03;28.40;98.30
38090;DHT22;23904;52.322;10.232;2023-06-22T11:12:29;28.30;98.20
38090;DHT22;23904;52.322;10.232;2023-06-22T11:14:54;28.00;98.40
38090;DHT22;23904;52.322;10.232;2023-06-22T11:17:22;27.90;99.00
38090;DHT22;23904;52.322;10.232;2023-06-22T11:19:47;28.00;98.70
38090;DHT22;23904;52.322;10.232;2023-06-22T11:22:13;28.90;97.60
38090;DHT22;23904;52.322;10.232;2023-06-22T11:24:38;29.80;96.20
38090;DHT22;23904;52.322;10.232;2023-06-22T11:27:04;30.30;94.30
38090;DHT22;23904;52.322;10.232;2023-06-22T11:29:30;30.00;95.00
38090;DHT22;23904;52.322;10.232;2023-06-22T11:31:56;30.80;94.50
38090;DHT22;23904;52.322;10.232;2023-06-22T11:34:21;31.70;93.70
38090;DHT22;23904;52.322;10.232;2023-06-22T11:36:47;32.80;91.30
38090;DHT22;23904;52.322;10.232;2023-06-22T11:39:13;33.90;90.00
38090;DHT22;23904;52.322;10.232;2023-06-22T11:41:40;34.30;87.50
38090;DHT22;23904;52.322;10.232;2023-06-22T11:44:06;34.00;87.80
38090;DHT22;23904;52.322;10.232;2023-06-22T11:46:32;34.40;86.60
38090;DHT22;23904;52.322;10.232;2023-06-22T11:48:58;34.80;83.30
38090;DHT22;23904;52.322;10.232;2023-06-22T11:51:23;35.40;81.00
38090;DHT22;23904;52.322;10.232;2023-06-22T11:53:49;36.00;78.50
38090;DHT22;23904;52.322;10.232;2023-06-22T11:56:14;36.80;73.20
38090;DHT22;23904;52.322;10.232;2023-06-22T11:58:40;37.20;71.00
38090;DHT22;23904;52.322;10.232;2023-06-22T12:01:05;37.20;70.60
38090;DHT22;23904;52.322;10.232;2023-06-22T12:03:31;37.10;70.60
38090;DHT22;23904;52.322;10.232;2023-06-22T12:05:56;36.90;70.30
38090;DHT22;23904;52.322;10.232;2023-06-22T12:08:23;37.40;70.00
38090;DHT22;23904;52.322;10.232;2023-06-22T12:10:49;37.00;68.60
38090;DHT22;23904;52.322;10.232;2023-06-22T12:13:15;36.20;69.70
38090;DHT22;23904;52.322;10.232;2023-06-22T12:15:41;35.30;72.20
38090;DHT22;23904;52.322;10.232;2023-06-22T12:18:06;34.30;74.40
38090;DHT22;23904;52.322;10.232;2023-06-22T12:20:32;34.00;75.30
38090;DHT22;23904;52.322;10.232;2023-06-22T12:22:58;33.20;77.60
38090;DHT22;23904;52.322;10.232;2023-06-22T12:25:23;33.10;78.70
38090;DHT22;23904;52.322;10.232;2023-06-22T12:27:49;32.80;78.70
38090;DHT22;23904;52.322;10.232;2023-06-22T12:30:16;32.40;78.90
38090;DHT22;23904;52.322;10.232;2023-06-22T12:32:42;32.40;79.00
38090;DHT22;23904;52.322;10.232;2023-06-22T12:35:08;32.30;80.70
38090;DHT22;23904;52.322;10.232;2023-06-22T12:37:41;32.30;79.60
38090;DHT22;23904;52.322;10.232;2023-06-22T12:40:08;31.80;79.90
38090;DHT22;23904;52.322;10.232;2023-06-22T12:42:34;31.50;81.00
38090;DHT22;23904;52.322;10.232;2023-06-22T12:45:00;31.20;82.50
38090;DHT22;23904;52.322;10.232;2023-06-22T12:47:25;30.90;83.30
38090;DHT22;23904;52.322;10.232;2023-06-22T12:49:51;30.70;84.00
38090;DHT22;23904;52.322;10.232;2023-06-22T12:52:16;30.70;83.90
38090;DHT22;23904;52.322;10.232;2023-06-22T12:54:42;30.60;85.00
38090;DHT22;23904;52.322;10.232;2023-06-22T12:57:07;30.50;86.00
38090;DHT22;23904;52.322;10.232;2023-06-22T12:59:33;30.40;85.60
38090;DHT22;23904;52.322;10.232;2023-06-22T13:01:59;30.20;85.60
38090;DHT22;23904;52.322;10.232;2023-06-22T13:04:24;30.10;86.40
38090;DHT22;23904;52.322;10.232;2023-06-22T13:06:50;30.00;87.10
38090;DHT22;23904;52.322;10.232;2023-06-22T13:09:17;30.10;86.20
38090;DHT22;23904;52.322;10.232;2023-06-22T13:11:43;30.00;86.70
38090;DHT22;23904;52.322;10.232;2023-06-22T13:14:09;29.90;86.90
38090;DHT22;23904;52.322;10.232;2023-06-22T13:16:35;30.10;85.80
38090;DHT22;23904;52.322;10.232;2023-06-22T13:19:00;30.00;86.20
38090;DHT22;23904;52.322;10.232;2023-06-22T13:21:26;29.90;86.80
38090;DHT22;23904;52.322;10.232;2023-06-22T13:23:51;29.70;87.00
38090;DHT22;23904;52.322;10.232;2023-06-22T13:26:17;29.80;87.60
38090;DHT22;23904;52.322;10.232;2023-06-22T13:28:43;29.90;88.20
38090;DHT22;23904;52.322;10.232;2023-06-22T13:31:08;30.00;88.00
38090;DHT22;23904;52.322;10.232;2023-06-22T13:33:34;29.90;87.50
38090;DHT22;23904;52.322;10.232;2023-06-22T13:35:59;29.70;87.90
38090;DHT22;23904;52.322;10.232;2023-06-22T13:38:25;29.60;87.30
38090;DHT22;23904;52.322;10.232;2023-06-22T13:40:51;29.60;86.80
38090;DHT22;23904;52.322;10.232;2023-06-22T13:43:17;29.40;88.10
38090;DHT22;23904;52.322;10.232;2023-06-22T13:45:43;29.30;87.80
38090;DHT22;23904;52.322;10.232;2023-06-22T13:48:09;29.20;87.30
38090;DHT22;23904;52.322;10.232;2023-06-22T13:50:35;29.10;88.20
38090;DHT22;23904;52.322;10.232;2023-06-22T13:53:01;29.10;88.20
38090;DHT22;23904;52.322;10.232;2023-06-22T13:55:26;29.10;87.10
38090;DHT22;23904;52.322;10.232;2023-06-22T13:57:52;29.10;87.80
38090;DHT22;23904;52.322;10.232;2023-06-22T14:00:18;29.00;87.70
38090;DHT22;23904;52.322;10.232;2023-06-22T14:02:44;29.00;88.30
38090;DHT22;23904;52.322;10.232;2023-06-22T14:05:10;29.00;88.90
38090;DHT22;23904;52.322;10.232;2023-06-22T14:07:36;29.00;89.80
38090;DHT22;23904;52.322;10.232;2023-06-22T14:10:03;29.00;90.20
38090;DHT22;23904;52.322;10.232;2023-06-22T14:12:29;28.90;90.30
38090;DHT22;23904;52.322;10.232;2023-06-22T14:14:54;29.00;91.10
38090;DHT22;23904;52.322;10.232;2023-06-22T14:17:20;28.90;93.30
38090;DHT22;23904;52.322;10.232;2023-06-22T14:19:50;28.90;94.60
38090;DHT22;23904;52.322;10.232;2023-06-22T14:22:18;28.80;93.70
38090;DHT22;23904;52.322;10.232;2023-06-22T14:24:45;28.60;94.00
38090;DHT22;23904;52.322;10.232;2023-06-22T14:27:11;28.30;95.80
38090;DHT22;23904;52.322;10.232;2023-06-22T14:29:36;28.00;97.90
38090;DHT22;23904;52.322;10.232;2023-06-22T14:32:02;27.80;98.10
38090;DHT22;23904;52.322;10.232;2023-06-22T14:34:27;27.70;98.90
38090;DHT22;23904;52.322;10.232;2023-06-22T14:36:53;27.80;99.00
38090;DHT22;23904;52.322;10.232;2023-06-22T14:39:18;27.70;98.60
38090;DHT22;23904;52.322;10.232;2023-06-22T14:41:45;27.60;98.30
38090;DHT22;23904;52.322;10.232;2023-06-22T14:44:11;27.60;99.00
38090;DHT22;23904;52.322;10.232;2023-06-22T14:46:36;27.60;98.00
38090;DHT22;23904;52.322;10.232;2023-06-22T14:49:02;27.70;97.20
38090;DHT22;23904;52.322;10.232;2023-06-22T14:51:27;27.60;98.00
38090;DHT22;23904;52.322;10.232;2023-06-22T14:53:53;27.60;97.60
38090;DHT22;23904;52.322;10.232;2023-06-22T14:56:18;27.60;97.30
38090;DHT22;23904;52.322;10.232;2023-06-22T14:58:44;27.50;97.10
38090;DHT22;23904;52.322;10.232;2023-06-22T15:01:13;27.40;97.70
38090;DHT22;23904;52.322;10.232;2023-06-22T15:03:42;27.50;97.30
38090;DHT22;23904;52.322;10.232;2023-06-22T15:06:08;27.60;97.10
38090;DHT22;23904;52.322;10.232;2023-06-22T15:08:34;27.70;97.00
38090;DHT22;23904;52.322;10.232;2023-06-22T15:11:00;27.50;97.20
38090;DHT22;23904;52.322;10.232;2023-06-22T15:13:29;27.40;97.30
38090;DHT22;23904;52.322;10.232;2023-06-22T15:15:57;27.50;97.40
38090;DHT22;23904;52.322;10.232;2023-06-22T15:18:23;27.50;97.60